Abano — CSY02 — position and weather

sailwx.info

Track history (hours):
 
Tides and Currents Weather Stations Pressure Air Temp Water Temp Dewpoint Dewpoint Depression Visibility Wind Speed Wind Dir Waves Ship Positions

Abano

Last reported at 2018-Jun-04 18:59 UTC. Time now 2018-Jun-21 04:47 UTC.
Position N 38°42' W 009°10'.
Warning: this ship's position is 16 days out of date.

Type: Port tender. MMSI: 263673670.

Date/timePositionNaut miles runAvg speedWind from/ knotsBaromVisibWave heightAir tempDewpointWater temp
2018-Jun-04 18:59N 38°42' W 009°10'1 2.1
2018-Jun-04 18:27N 38°41' W 009°11'1 2.4
2018-Jun-04 17:58N 38°41' W 009°10'2 0.6
2018-Jun-04 15:22N 38°42' W 009°08'0 0.1
2018-Jun-04 10:11N 38°42' W 009°07'0 0.4
2018-Jun-04 09:54N 38°42' W 009°08'2 1.0
2018-Jun-04 08:02N 38°40' W 009°09'0 0.4
2018-Jun-04 07:48N 38°40' W 009°09'2 2.3
2018-Jun-04 06:56N 38°42' W 009°09'2 2.7
2018-Jun-04 06:15N 38°41' W 009°11'0 0.0
2018-Jun-04 05:51N 38°41' W 009°11'2 0.1
2018-Jun-03 00:23N 38°42' W 009°09'4 3.6
2018-Jun-02 23:17N 38°40' W 009°14'0 0.0
2018-Jun-02 21:43N 38°40' W 009°14'3 9.0
2018-Jun-02 21:25N 38°41' W 009°11'1 0.3
2018-Jun-02 17:33N 38°42' W 009°10'1 7.8
2018-Jun-02 17:27N 38°42' W 009°11'1 2.0
2018-Jun-02 17:00N 38°41' W 009°11'0 0.8
2018-Jun-02 16:24N 38°41' W 009°11'1 0.2
2018-Jun-02 13:22N 38°41' W 009°10'0 0.2
2018-Jun-02 12:39N 38°42' W 009°10'1 0.1
2018-Jun-02 08:13N 38°42' W 009°10'1 5.6
2018-Jun-02 07:57N 38°41' W 009°11'1 0.4
2018-Jun-02 04:41N 38°42' W 009°10'1 5.1
2018-Jun-02 04:27N 38°41' W 009°11'  
2018-May-30 19:04N 38°42' W 009°10'0 4.8
2018-May-30 18:59N 38°42' W 009°10'1 0.1
2018-May-30 02:14N 38°42' W 009°08'2 7.3
2018-May-30 01:55N 38°41' W 009°06'0 0.2
2018-May-30 00:57N 38°41' W 009°06'4 0.6
2018-May-29 18:38N 38°42' W 009°10'1 5.3
2018-May-29 18:26N 38°41' W 009°11'0 0.7
2018-May-29 17:47N 38°41' W 009°11'3 0.3
2018-May-29 07:09N 38°42' W 009°07'2 0.1
2018-May-28 15:40N 38°42' W 009°10'1 5.9
2018-May-28 15:28N 38°42' W 009°11'1 1.9
2018-May-28 15:00N 38°41' W 009°10'1 0.2
2018-May-28 12:24N 38°42' W 009°10'1 3.3
2018-May-28 12:00N 38°41' W 009°12'2 1.3
2018-May-28 10:40N 38°42' W 009°10'3 9.1
2018-May-28 10:21N 38°41' W 009°13'0 0.2
2018-May-28 09:44N 38°41' W 009°13'1 4.3
2018-May-28 09:30N 38°41' W 009°12'2 0.1
2018-May-27 14:32N 38°42' W 009°09'1 7.3
2018-May-27 14:22N 38°41' W 009°11'1 2.1
2018-May-27 13:55N 38°41' W 009°12'2 3.7
2018-May-27 13:22N 38°42' W 009°10'2 0.1
2018-May-26 01:48N 38°42' W 009°07'2 8.4
2018-May-26 01:30N 38°41' W 009°04'0 0.0
2018-May-26 00:43N 38°41' W 009°04'0 0.2
2018-May-26 00:23N 38°41' W 009°04'1 2.6
2018-May-25 23:57N 38°41' W 009°05'2 5.2
2018-May-25 23:30N 38°42' W 009°08'  
Track history (hours):
 
Tides and Currents Weather Stations Pressure Air Temp Water Temp Dewpoint Dewpoint Depression Visibility Wind Speed Wind Dir Waves Ship Positions

Abano

Last reported at 2018-Jun-04 18:59 UTC. Time now 2018-Jun-21 04:47 UTC.
Position N 38°42' W 009°10'.
Warning: this ship's position is 16 days out of date.

Type: Port tender. MMSI: 263673670.

Date/timePositionNaut miles runAvg speedWind from/ knotsBaromVisibWave heightAir tempDewpointWater temp
2018-Jun-04 18:59N 38°42' W 009°10'1 2.1
2018-Jun-04 18:27N 38°41' W 009°11'1 2.4
2018-Jun-04 17:58N 38°41' W 009°10'2 0.6
2018-Jun-04 15:22N 38°42' W 009°08'0 0.1
2018-Jun-04 10:11N 38°42' W 009°07'0 0.4
2018-Jun-04 09:54N 38°42' W 009°08'2 1.0
2018-Jun-04 08:02N 38°40' W 009°09'0 0.4
2018-Jun-04 07:48N 38°40' W 009°09'2 2.3
2018-Jun-04 06:56N 38°42' W 009°09'2 2.7
2018-Jun-04 06:15N 38°41' W 009°11'0 0.0
2018-Jun-04 05:51N 38°41' W 009°11'2 0.1
2018-Jun-03 00:23N 38°42' W 009°09'4 3.6
2018-Jun-02 23:17N 38°40' W 009°14'0 0.0
2018-Jun-02 21:43N 38°40' W 009°14'3 9.0
2018-Jun-02 21:25N 38°41' W 009°11'1 0.3
2018-Jun-02 17:33N 38°42' W 009°10'1 7.8
2018-Jun-02 17:27N 38°42' W 009°11'1 2.0
2018-Jun-02 17:00N 38°41' W 009°11'0 0.8
2018-Jun-02 16:24N 38°41' W 009°11'1 0.2
2018-Jun-02 13:22N 38°41' W 009°10'0 0.2
2018-Jun-02 12:39N 38°42' W 009°10'1 0.1
2018-Jun-02 08:13N 38°42' W 009°10'1 5.6
2018-Jun-02 07:57N 38°41' W 009°11'1 0.4
2018-Jun-02 04:41N 38°42' W 009°10'1 5.1
2018-Jun-02 04:27N 38°41' W 009°11'  
2018-May-30 19:04N 38°42' W 009°10'0 4.8
2018-May-30 18:59N 38°42' W 009°10'1 0.1
2018-May-30 02:14N 38°42' W 009°08'2 7.3
2018-May-30 01:55N 38°41' W 009°06'0 0.2
2018-May-30 00:57N 38°41' W 009°06'4 0.6
2018-May-29 18:38N 38°42' W 009°10'1 5.3
2018-May-29 18:26N 38°41' W 009°11'0 0.7
2018-May-29 17:47N 38°41' W 009°11'3 0.3
2018-May-29 07:09N 38°42' W 009°07'2 0.1
2018-May-28 15:40N 38°42' W 009°10'1 5.9
2018-May-28 15:28N 38°42' W 009°11'1 1.9
2018-May-28 15:00N 38°41' W 009°10'1 0.2
2018-May-28 12:24N 38°42' W 009°10'1 3.3
2018-May-28 12:00N 38°41' W 009°12'2 1.3
2018-May-28 10:40N 38°42' W 009°10'3 9.1
2018-May-28 10:21N 38°41' W 009°13'0 0.2
2018-May-28 09:44N 38°41' W 009°13'1 4.3
2018-May-28 09:30N 38°41' W 009°12'2 0.1
2018-May-27 14:32N 38°42' W 009°09'1 7.3
2018-May-27 14:22N 38°41' W 009°11'1 2.1
2018-May-27 13:55N 38°41' W 009°12'2 3.7
2018-May-27 13:22N 38°42' W 009°10'2 0.1
2018-May-26 01:48N 38°42' W 009°07'2 8.4
2018-May-26 01:30N 38°41' W 009°04'0 0.0
2018-May-26 00:43N 38°41' W 009°04'0 0.2
2018-May-26 00:23N 38°41' W 009°04'1 2.6
2018-May-25 23:57N 38°41' W 009°05'2 5.2
2018-May-25 23:30N 38°42' W 009°08'  

Dump ship's entire track history